KMDJ/MDJ METAR and TAF weather

Enter ICAO airport designator
Station Type Date Time Source
KMDJ METAR 2019/06/18 15:35 UTC NOAA

KMDJ 181535Z AUTO 13013KT 9SM CLR 26/23 A2997 RMK A01


Station Type Date Time Source
KMDJ Decoded METAR 2019/06/18 15:35 UTC NOAA

Mississippi Canyon, LA, United States (KMDJ) 28-38-33N 089-47-39W
Jun 18, 2019 - 11:35 AM EDT / 2019.06.18 1535 UTC
Wind: from the SE (130 degrees) at 15 MPH (13 KT):0
Visibility: 9 mile(s):0
Sky conditions: clear
Temperature: 78 F (26 C)
Dew Point: 73 F (23 C)
Relative Humidity: 83%
Pressure (altimeter): 29.97 in. Hg (1014 hPa)
ob: KMDJ 181535Z AUTO 13013KT 9SM CLR 26/23 A2997 RMK A01
cycle: 15

Station Type Date Time Source
KMDJ TAF UTC NOAA

Error!

Example: see airport list